createdAt,value
2023-05-22T00:00:20.526Z,17.30
2023-05-22T00:02:51.513Z,17.30
2023-05-22T00:05:20.655Z,17.20
2023-05-22T00:07:48.138Z,17.30
2023-05-22T00:10:15.118Z,17.20
2023-05-22T00:12:42.079Z,17.30
2023-05-22T00:15:09.458Z,17.20
2023-05-22T00:17:36.644Z,17.20
2023-05-22T00:20:07.039Z,17.10
2023-05-22T00:22:37.404Z,17.10
2023-05-22T00:25:05.797Z,17.00
2023-05-22T00:27:33.535Z,17.00
2023-05-22T00:30:01.225Z,17.00
2023-05-22T00:32:28.740Z,17.00
2023-05-22T00:34:55.720Z,16.90
2023-05-22T00:37:23.206Z,16.90
2023-05-22T00:39:50.209Z,16.90
2023-05-22T00:42:18.415Z,16.90
2023-05-22T00:44:45.949Z,16.90
2023-05-22T00:47:13.017Z,16.90
2023-05-22T00:49:41.015Z,16.90
2023-05-22T00:52:09.317Z,16.80
2023-05-22T00:54:36.936Z,16.80
2023-05-22T00:57:04.538Z,16.80
2023-05-22T00:59:31.879Z,16.80
2023-05-22T01:01:59.482Z,16.80
2023-05-22T01:04:26.526Z,16.70
2023-05-22T01:06:54.222Z,16.70
2023-05-22T01:09:21.271Z,16.70
2023-05-22T01:12:03.495Z,16.70
2023-05-22T01:14:47.118Z,16.70
2023-05-22T01:17:47.762Z,16.70
2023-05-22T01:20:27.616Z,16.60
2023-05-22T01:23:32.350Z,16.60
2023-05-22T01:26:24.358Z,16.50
2023-05-22T01:29:29.249Z,16.50
2023-05-22T01:31:59.255Z,16.40
2023-05-22T01:34:28.045Z,16.30
2023-05-22T01:36:56.407Z,16.30
2023-05-22T01:39:27.996Z,16.20
2023-05-22T01:41:55.502Z,16.20
2023-05-22T01:44:23.587Z,16.20
2023-05-22T01:46:50.624Z,16.10
2023-05-22T01:49:17.905Z,16.10
2023-05-22T01:51:52.137Z,16.00
2023-05-22T01:54:29.444Z,16.00
2023-05-22T01:57:15.678Z,15.90
2023-05-22T02:00:11.815Z,15.80
2023-05-22T02:02:49.867Z,15.80
2023-05-22T02:05:21.722Z,15.70
2023-05-22T02:07:49.211Z,15.70
2023-05-22T02:10:19.703Z,15.60
2023-05-22T02:12:47.066Z,15.60
2023-05-22T02:15:14.439Z,15.50
2023-05-22T02:17:41.902Z,15.50
2023-05-22T02:20:15.410Z,15.40
2023-05-22T02:22:45.270Z,15.40
2023-05-22T02:25:17.017Z,15.30
2023-05-22T02:27:46.615Z,15.30
2023-05-22T02:30:15.268Z,15.30
2023-05-22T02:32:44.033Z,15.20
2023-05-22T02:35:11.126Z,15.20
2023-05-22T02:37:38.609Z,15.20
2023-05-22T02:40:06.420Z,15.00
2023-05-22T02:42:34.161Z,15.00
2023-05-22T02:45:02.070Z,14.90
2023-05-22T02:47:29.121Z,14.90
2023-05-22T02:49:57.945Z,14.90
2023-05-22T02:52:25.359Z,14.80
2023-05-22T02:54:52.286Z,14.80
2023-05-22T02:57:20.796Z,14.80
2023-05-22T02:59:47.920Z,14.80
2023-05-22T03:02:15.509Z,14.80
2023-05-22T03:04:42.509Z,14.70
2023-05-22T03:07:10.090Z,14.70
2023-05-22T03:09:37.306Z,14.60
2023-05-22T03:12:05.211Z,14.60
2023-05-22T03:14:32.342Z,14.50
2023-05-22T03:16:59.556Z,14.50
2023-05-22T03:19:27.028Z,14.50
2023-05-22T03:21:54.484Z,14.50
2023-05-22T03:24:22.503Z,14.40
2023-05-22T03:26:49.517Z,14.40
2023-05-22T03:29:23.775Z,14.40
2023-05-22T03:31:50.931Z,14.40
2023-05-22T03:34:18.504Z,14.40
2023-05-22T03:36:48.339Z,14.30
2023-05-22T03:39:17.151Z,14.20
2023-05-22T03:42:04.699Z,14.20
2023-05-22T03:44:31.623Z,14.30
2023-05-22T03:46:58.744Z,14.30
2023-05-22T03:49:25.832Z,14.30
2023-05-22T03:51:52.793Z,14.40
2023-05-22T03:54:19.749Z,14.30
2023-05-22T03:56:46.673Z,14.40
2023-05-22T03:59:13.632Z,14.40
2023-05-22T04:01:40.744Z,14.40
2023-05-22T04:04:10.617Z,14.40
2023-05-22T04:06:43.330Z,14.50
2023-05-22T04:09:13.311Z,14.40
2023-05-22T04:11:40.459Z,14.50
2023-05-22T04:14:07.497Z,14.50
2023-05-22T04:16:34.857Z,14.50
2023-05-22T04:19:03.360Z,14.60
2023-05-22T04:21:34.219Z,14.60
2023-05-22T04:24:07.153Z,14.70
2023-05-22T04:26:34.254Z,14.80
2023-05-22T04:29:01.263Z,14.90
2023-05-22T04:31:28.614Z,15.00
2023-05-22T04:33:56.114Z,15.10
2023-05-22T04:36:26.022Z,15.20
2023-05-22T04:38:54.140Z,15.30
2023-05-22T04:41:26.671Z,15.40
2023-05-22T04:43:54.608Z,15.50
2023-05-22T04:46:21.911Z,15.60
2023-05-22T04:48:48.924Z,15.60
2023-05-22T04:51:16.322Z,15.60
2023-05-22T04:53:43.436Z,15.70
2023-05-22T04:56:11.814Z,15.80
2023-05-22T04:58:40.332Z,16.00
2023-05-22T05:01:07.525Z,16.10
2023-05-22T05:03:34.983Z,16.20
2023-05-22T05:06:02.058Z,16.40
2023-05-22T05:08:29.076Z,16.50
2023-05-22T05:10:56.080Z,16.50
2023-05-22T05:13:23.279Z,16.50
2023-05-22T05:15:50.460Z,16.60
2023-05-22T05:18:17.553Z,16.80
2023-05-22T05:20:44.512Z,16.80
2023-05-22T05:23:11.505Z,16.90
2023-05-22T05:25:38.825Z,17.00
2023-05-22T05:28:10.830Z,17.10
2023-05-22T05:30:41.515Z,17.30
2023-05-22T05:33:19.717Z,17.40
2023-05-22T05:36:03.926Z,17.40
2023-05-22T05:38:32.246Z,17.60
2023-05-22T05:41:19.452Z,17.70
2023-05-22T05:43:57.301Z,17.90
2023-05-22T05:46:34.672Z,18.10
2023-05-22T05:49:12.081Z,18.10
2023-05-22T05:51:48.221Z,18.20
2023-05-22T05:57:40.698Z,18.60
2023-05-22T06:00:13.461Z,18.90
2023-05-22T06:02:54.181Z,19.20
2023-05-22T06:05:40.476Z,19.50
2023-05-22T06:08:20.030Z,19.80
2023-05-22T06:10:47.553Z,20.00
2023-05-22T06:13:33.270Z,20.30
2023-05-22T06:16:05.850Z,20.60
2023-05-22T06:25:26.301Z,21.50
2023-05-22T06:32:35.533Z,22.60
2023-05-22T06:35:39.193Z,23.30
2023-05-22T06:41:54.054Z,25.00
2023-05-22T06:44:21.526Z,25.70
2023-05-22T06:46:54.549Z,26.30
2023-05-22T06:49:24.519Z,26.90
2023-05-22T06:51:54.375Z,27.50
2023-05-22T06:54:21.680Z,28.00
2023-05-22T06:56:52.769Z,28.50
2023-05-22T06:59:20.817Z,28.90
2023-05-22T07:01:59.799Z,29.40
2023-05-22T07:04:53.620Z,29.70
2023-05-22T07:07:25.957Z,29.90
2023-05-22T07:09:53.246Z,30.30
2023-05-22T07:12:20.899Z,30.60
2023-05-22T07:14:47.826Z,30.80
2023-05-22T07:17:14.875Z,31.00
2023-05-22T07:19:44.702Z,31.20
2023-05-22T07:22:12.045Z,31.30
2023-05-22T07:24:40.136Z,31.40
2023-05-22T07:27:09.254Z,31.70
2023-05-22T07:29:36.781Z,32.00
2023-05-22T07:32:06.245Z,32.30
2023-05-22T07:34:34.403Z,32.50
2023-05-22T07:37:09.007Z,32.80
2023-05-22T07:39:36.077Z,33.30
2023-05-22T07:42:04.794Z,33.50
2023-05-22T07:44:34.482Z,33.60
2023-05-22T07:47:01.818Z,33.90
2023-05-22T07:49:30.093Z,34.30
2023-05-22T07:51:57.100Z,34.50
2023-05-22T07:54:26.165Z,34.70
2023-05-22T07:56:53.171Z,35.00
2023-05-22T07:59:22.099Z,35.50
2023-05-22T08:01:50.599Z,36.00
2023-05-22T08:04:18.011Z,36.40
2023-05-22T08:06:45.173Z,36.80
2023-05-22T08:09:12.304Z,37.40
2023-05-22T08:11:42.143Z,37.70
2023-05-22T08:14:09.565Z,37.90
2023-05-22T08:16:36.663Z,38.20
2023-05-22T08:19:08.004Z,38.40
2023-05-22T08:21:35.971Z,38.60
2023-05-22T08:24:02.985Z,39.00
2023-05-22T08:26:31.484Z,39.30
2023-05-22T08:29:00.138Z,39.30
2023-05-22T08:31:29.258Z,39.50
2023-05-22T08:34:02.592Z,39.80
2023-05-22T08:36:31.692Z,40.00
2023-05-22T08:38:58.903Z,40.20
2023-05-22T08:41:25.812Z,40.40
2023-05-22T08:43:53.096Z,40.10
2023-05-22T08:46:26.450Z,40.00
2023-05-22T08:48:56.906Z,39.80
2023-05-22T08:51:29.478Z,39.90
2023-05-22T08:53:57.474Z,39.80
2023-05-22T08:56:26.808Z,39.80
2023-05-22T08:58:56.079Z,40.00
2023-05-22T09:01:23.888Z,40.30
2023-05-22T09:03:51.749Z,40.70
2023-05-22T09:06:18.829Z,41.20
2023-05-22T09:08:46.172Z,41.40
2023-05-22T09:11:13.477Z,41.80
2023-05-22T09:13:41.542Z,42.10
2023-05-22T09:16:13.154Z,41.90
2023-05-22T09:18:41.645Z,41.80
2023-05-22T09:23:40.952Z,42.20
2023-05-22T09:26:07.942Z,42.20
2023-05-22T09:28:36.678Z,42.40
2023-05-22T09:31:04.680Z,42.60
2023-05-22T09:33:32.357Z,42.60
2023-05-22T09:36:00.151Z,42.60
2023-05-22T09:38:29.406Z,42.80
2023-05-22T09:40:56.981Z,43.00
2023-05-22T09:43:27.760Z,43.20
2023-05-22T09:46:02.080Z,42.90
2023-05-22T09:48:29.385Z,42.60
2023-05-22T09:50:59.702Z,42.30
2023-05-22T09:53:29.006Z,42.20
2023-05-22T09:56:00.530Z,41.90
2023-05-22T09:58:31.608Z,41.70
2023-05-22T10:01:01.295Z,41.80
2023-05-22T10:03:28.677Z,41.70
2023-05-22T10:05:57.687Z,41.30
2023-05-22T10:08:42.031Z,41.00
2023-05-22T10:11:11.310Z,41.20
2023-05-22T10:13:40.459Z,41.40
2023-05-22T10:16:08.116Z,41.50
2023-05-22T10:18:37.490Z,41.80
2023-05-22T10:21:05.111Z,42.10
2023-05-22T10:23:32.408Z,42.30
2023-05-22T10:25:59.844Z,42.40
2023-05-22T10:28:35.239Z,42.60
2023-05-22T10:31:23.364Z,42.50
2023-05-22T10:34:18.256Z,42.20
2023-05-22T10:37:00.371Z,41.30
2023-05-22T10:40:02.983Z,40.60
2023-05-22T10:42:34.178Z,40.30
2023-05-22T10:45:01.927Z,40.00
2023-05-22T10:47:33.011Z,39.90
2023-05-22T10:50:04.556Z,40.00
2023-05-22T10:52:31.708Z,40.00
2023-05-22T10:55:01.298Z,40.30
2023-05-22T10:57:36.348Z,40.50
2023-05-22T11:00:11.202Z,40.50
2023-05-22T11:02:46.073Z,40.20
2023-05-22T11:05:19.228Z,39.90
2023-05-22T11:07:46.195Z,40.10
2023-05-22T11:10:50.843Z,40.40
2023-05-22T11:13:18.269Z,40.70
2023-05-22T11:15:48.816Z,40.90
2023-05-22T11:18:17.219Z,40.80
2023-05-22T11:20:44.469Z,40.80
2023-05-22T11:23:11.889Z,40.90
2023-05-22T11:25:41.976Z,41.10
2023-05-22T11:28:10.816Z,41.40
2023-05-22T11:30:38.889Z,41.70
2023-05-22T11:33:08.963Z,41.70
2023-05-22T11:35:40.755Z,41.70
2023-05-22T11:38:07.880Z,41.70
2023-05-22T11:40:34.922Z,41.80
2023-05-22T11:43:04.174Z,42.00
2023-05-22T11:45:31.400Z,42.10
2023-05-22T11:47:58.369Z,42.30
2023-05-22T11:50:41.028Z,42.20
2023-05-22T11:53:08.994Z,41.90
2023-05-22T11:55:36.031Z,41.70
2023-05-22T11:58:03.081Z,41.60
2023-05-22T12:00:33.143Z,41.30
2023-05-22T12:03:10.343Z,41.00
2023-05-22T12:05:38.069Z,40.60
2023-05-22T12:08:06.654Z,40.60
2023-05-22T12:10:33.874Z,40.40
2023-05-22T12:13:01.024Z,40.00
2023-05-22T12:15:28.165Z,39.90
2023-05-22T12:17:56.318Z,40.10
2023-05-22T12:20:28.767Z,40.30
2023-05-22T12:22:56.416Z,40.40
2023-05-22T12:25:24.888Z,40.30
2023-05-22T12:27:51.930Z,40.10
2023-05-22T12:30:19.403Z,39.90
2023-05-22T12:32:50.762Z,39.80
2023-05-22T12:35:18.599Z,39.60
2023-05-22T12:37:52.258Z,38.90
2023-05-22T12:40:19.368Z,37.90
2023-05-22T12:42:47.141Z,36.90
2023-05-22T12:45:14.487Z,36.20
2023-05-22T12:47:41.500Z,35.60
2023-05-22T12:50:09.168Z,35.10
2023-05-22T12:52:36.461Z,34.80
2023-05-22T12:55:03.762Z,34.50
2023-05-22T12:57:30.832Z,34.10
2023-05-22T12:59:57.847Z,33.90
2023-05-22T13:02:24.870Z,33.80
2023-05-22T13:04:51.805Z,33.80
2023-05-22T13:07:18.773Z,33.70
2023-05-22T13:09:45.833Z,33.40
2023-05-22T13:12:12.944Z,33.20
2023-05-22T13:14:40.528Z,32.90
2023-05-22T13:17:08.072Z,32.60
2023-05-22T13:19:35.264Z,32.30
2023-05-22T13:22:02.320Z,32.00
2023-05-22T13:24:29.640Z,31.80
2023-05-22T13:26:56.846Z,31.70
2023-05-22T13:29:23.815Z,31.40
2023-05-22T13:31:51.346Z,31.30
2023-05-22T13:34:19.168Z,31.20
2023-05-22T13:36:46.659Z,31.10
2023-05-22T13:39:13.637Z,31.00
2023-05-22T13:41:40.850Z,31.00
2023-05-22T13:44:10.422Z,31.00
2023-05-22T13:46:39.998Z,30.80
2023-05-22T13:49:07.941Z,30.70
2023-05-22T13:51:34.954Z,30.60
2023-05-22T13:54:02.871Z,30.60
2023-05-22T13:56:30.091Z,30.50
2023-05-22T13:58:57.213Z,30.50
2023-05-22T14:01:24.311Z,30.60
2023-05-22T14:03:51.811Z,30.60
2023-05-22T14:06:19.057Z,30.50
2023-05-22T14:08:46.097Z,30.40
2023-05-22T14:11:13.251Z,30.30
2023-05-22T14:13:40.328Z,30.10
2023-05-22T14:16:07.249Z,30.00
2023-05-22T14:18:34.184Z,29.90
2023-05-22T14:21:02.693Z,29.90
2023-05-22T14:23:31.549Z,30.00
2023-05-22T14:25:58.832Z,29.90
2023-05-22T14:28:26.098Z,29.90
2023-05-22T14:30:53.310Z,29.90
2023-05-22T14:33:20.580Z,29.80
2023-05-22T14:35:48.516Z,29.80
2023-05-22T14:38:15.636Z,29.90
2023-05-22T14:40:42.646Z,30.00
2023-05-22T14:43:09.935Z,29.90
2023-05-22T14:45:36.941Z,29.90
2023-05-22T14:48:04.835Z,29.80
2023-05-22T14:50:31.871Z,29.60
2023-05-22T14:52:58.894Z,29.50
2023-05-22T14:55:27.920Z,29.40
2023-05-22T14:57:55.190Z,29.40
2023-05-22T15:00:22.389Z,29.40
2023-05-22T15:02:53.236Z,29.50
2023-05-22T15:05:20.449Z,29.40
2023-05-22T15:07:49.022Z,29.30
2023-05-22T15:10:17.764Z,29.30
2023-05-22T15:12:44.686Z,29.20
2023-05-22T15:15:12.467Z,29.20
2023-05-22T15:17:42.427Z,29.20
2023-05-22T15:20:10.698Z,29.30
2023-05-22T15:22:38.092Z,29.30
2023-05-22T15:25:06.501Z,29.30
2023-05-22T15:27:37.100Z,29.30
2023-05-22T15:30:05.852Z,29.20
2023-05-22T15:32:33.176Z,29.20
2023-05-22T15:35:00.549Z,29.20
2023-05-22T15:37:29.168Z,29.20
2023-05-22T15:39:57.668Z,29.20
2023-05-22T15:42:25.096Z,29.10
2023-05-22T15:44:52.014Z,29.00
2023-05-22T15:47:18.993Z,28.90
2023-05-22T15:49:46.092Z,28.90
2023-05-22T15:52:12.970Z,28.80
2023-05-22T15:54:39.972Z,28.70
2023-05-22T15:57:07.078Z,28.50
2023-05-22T15:59:34.063Z,28.50
2023-05-22T16:02:01.069Z,28.50
2023-05-22T16:04:27.980Z,28.40
2023-05-22T16:06:54.879Z,28.40
2023-05-22T16:09:21.814Z,28.40
2023-05-22T16:11:49.318Z,28.30
2023-05-22T16:14:16.295Z,28.30
2023-05-22T16:16:43.822Z,28.20
2023-05-22T16:19:11.586Z,28.20
2023-05-22T16:21:38.866Z,28.20
2023-05-22T16:24:06.983Z,28.30
2023-05-22T16:26:34.112Z,28.30
2023-05-22T16:29:01.116Z,28.30
2023-05-22T16:31:28.751Z,28.30
2023-05-22T16:33:56.189Z,28.30
2023-05-22T16:36:24.564Z,28.30
2023-05-22T16:38:52.594Z,28.20
2023-05-22T16:41:19.634Z,28.10
2023-05-22T16:43:46.673Z,28.10
2023-05-22T16:46:13.637Z,28.00
2023-05-22T16:48:40.700Z,27.90
2023-05-22T16:51:07.949Z,27.80
2023-05-22T16:53:37.984Z,27.70
2023-05-22T16:56:05.919Z,27.70
2023-05-22T16:58:33.013Z,27.60
2023-05-22T17:00:59.901Z,27.60
2023-05-22T17:03:27.032Z,27.60
2023-05-22T17:05:54.306Z,27.50
2023-05-22T17:08:21.243Z,27.50
2023-05-22T17:10:48.152Z,27.40
2023-05-22T17:13:20.794Z,27.30
2023-05-22T17:15:49.354Z,27.20
2023-05-22T17:18:19.701Z,27.20
2023-05-22T17:20:51.317Z,27.20
2023-05-22T17:23:18.430Z,27.20
2023-05-22T17:25:49.533Z,27.20
2023-05-22T17:28:17.230Z,27.20
2023-05-22T17:30:45.998Z,27.10
2023-05-22T17:33:14.005Z,26.90
2023-05-22T17:35:41.392Z,26.80
2023-05-22T17:38:08.614Z,26.60
2023-05-22T17:40:44.665Z,26.40
2023-05-22T17:43:12.581Z,26.30
2023-05-22T17:45:40.192Z,26.10
2023-05-22T17:48:07.997Z,26.00
2023-05-22T17:50:35.335Z,25.90
2023-05-22T17:53:02.292Z,25.80
2023-05-22T17:55:29.380Z,25.60
2023-05-22T17:57:56.485Z,25.50
2023-05-22T18:00:23.516Z,25.30
2023-05-22T18:02:50.693Z,25.20
2023-05-22T18:05:17.973Z,25.10
2023-05-22T18:07:45.009Z,24.90
2023-05-22T18:10:12.027Z,24.80
2023-05-22T18:12:39.291Z,24.70
2023-05-22T18:15:09.725Z,24.60
2023-05-22T18:17:36.809Z,24.50
2023-05-22T18:20:06.962Z,24.40
2023-05-22T18:22:35.101Z,24.30
2023-05-22T18:25:02.482Z,24.30
2023-05-22T18:27:29.730Z,24.20
2023-05-22T18:29:57.154Z,24.10
2023-05-22T18:32:24.500Z,24.00
2023-05-22T18:34:52.066Z,23.90
2023-05-22T18:37:19.713Z,23.90
2023-05-22T18:39:47.472Z,23.80
2023-05-22T18:42:14.713Z,23.80
2023-05-22T18:44:41.726Z,23.70
2023-05-22T18:47:08.990Z,23.70
2023-05-22T18:49:36.313Z,23.60
2023-05-22T18:52:03.400Z,23.50
2023-05-22T18:54:30.547Z,23.40
2023-05-22T18:56:57.547Z,23.40
2023-05-22T18:59:24.634Z,23.30
2023-05-22T19:01:51.530Z,23.30
2023-05-22T19:04:19.199Z,23.20
2023-05-22T19:06:46.611Z,23.20
2023-05-22T19:09:13.655Z,23.10
2023-05-22T19:11:40.611Z,23.10
2023-05-22T19:14:07.626Z,23.00
2023-05-22T19:16:34.613Z,23.00
2023-05-22T19:19:01.985Z,23.00
2023-05-22T19:21:29.024Z,22.90
2023-05-22T19:23:56.058Z,22.80
2023-05-22T19:26:23.181Z,22.80
2023-05-22T19:28:50.086Z,22.70
2023-05-22T19:31:17.608Z,22.60
2023-05-22T19:33:44.630Z,22.50
2023-05-22T19:36:11.625Z,22.40
2023-05-22T19:38:38.605Z,22.30
2023-05-22T19:41:05.693Z,22.20
2023-05-22T19:43:32.688Z,22.10
2023-05-22T19:45:59.871Z,22.00
2023-05-22T19:48:27.176Z,22.00
2023-05-22T19:50:54.124Z,21.90
2023-05-22T19:53:21.410Z,21.80
2023-05-22T19:55:48.750Z,21.80
2023-05-22T19:58:15.847Z,21.70
2023-05-22T20:00:43.249Z,21.60
2023-05-22T20:03:10.432Z,21.60
2023-05-22T20:05:37.806Z,21.50
2023-05-22T20:08:05.079Z,21.40
2023-05-22T20:10:33.312Z,21.40
2023-05-22T20:13:00.360Z,21.40
2023-05-22T20:15:27.616Z,21.30
2023-05-22T20:17:55.038Z,21.20
2023-05-22T20:20:24.857Z,21.20
2023-05-22T20:22:53.696Z,21.20
2023-05-22T20:25:21.569Z,21.10
2023-05-22T20:27:48.553Z,21.10
2023-05-22T20:30:16.064Z,21.00
2023-05-22T20:32:45.594Z,21.00
2023-05-22T20:35:13.126Z,21.00
2023-05-22T20:37:41.733Z,21.00
2023-05-22T20:40:12.977Z,20.90
2023-05-22T20:42:42.585Z,20.90
2023-05-22T20:45:14.861Z,20.90
2023-05-22T20:47:43.410Z,20.80
2023-05-22T20:50:11.320Z,20.80
2023-05-22T20:52:38.489Z,20.80
2023-05-22T20:55:06.795Z,20.70
2023-05-22T20:57:34.474Z,20.70
2023-05-22T21:00:01.566Z,20.70
2023-05-22T21:02:28.494Z,20.60
2023-05-22T21:04:55.545Z,20.60
2023-05-22T21:07:22.422Z,20.60
2023-05-22T21:09:49.333Z,20.50
2023-05-22T21:12:16.360Z,20.40
2023-05-22T21:14:44.134Z,20.40
2023-05-22T21:17:11.160Z,20.30
2023-05-22T21:19:38.381Z,20.40
2023-05-22T21:22:06.526Z,20.40
2023-05-22T21:24:33.440Z,20.30
2023-05-22T21:27:00.644Z,20.30
2023-05-22T21:29:27.743Z,20.20
2023-05-22T21:31:54.797Z,20.10
2023-05-22T21:34:21.877Z,20.10
2023-05-22T21:36:49.968Z,20.00
2023-05-22T21:39:16.900Z,20.00
2023-05-22T21:41:43.878Z,19.90
2023-05-22T21:44:10.871Z,19.90
2023-05-22T21:46:37.753Z,19.80
2023-05-22T21:49:06.231Z,19.70
2023-05-22T21:51:33.403Z,19.70
2023-05-22T21:54:00.422Z,19.60
2023-05-22T21:56:27.636Z,19.50
2023-05-22T21:58:54.487Z,19.40
2023-05-22T22:01:21.651Z,19.40
2023-05-22T22:03:48.603Z,19.40
2023-05-22T22:06:15.793Z,19.40
2023-05-22T22:08:42.717Z,19.30
2023-05-22T22:11:09.707Z,19.20
2023-05-22T22:13:36.779Z,19.20
2023-05-22T22:16:03.878Z,19.10
2023-05-22T22:18:33.010Z,19.10
2023-05-22T22:21:02.186Z,19.10
2023-05-22T22:23:29.640Z,18.90
2023-05-22T22:25:56.665Z,18.90
2023-05-22T22:28:23.648Z,18.80
2023-05-22T22:30:52.201Z,18.70
2023-05-22T22:33:20.977Z,18.70
2023-05-22T22:35:48.305Z,18.70
2023-05-22T22:38:15.227Z,18.70
2023-05-22T22:40:42.334Z,18.70
2023-05-22T22:43:09.731Z,18.70
2023-05-22T22:45:36.720Z,18.60
2023-05-22T22:48:03.833Z,18.60
2023-05-22T22:50:31.573Z,18.60
2023-05-22T22:52:58.485Z,18.60
2023-05-22T22:55:25.655Z,18.60
2023-05-22T22:57:53.395Z,18.60
2023-05-22T23:00:20.625Z,18.60
2023-05-22T23:02:47.992Z,18.60
2023-05-22T23:05:16.666Z,18.70
2023-05-22T23:07:44.375Z,18.70
2023-05-22T23:10:11.802Z,18.70
2023-05-22T23:12:38.849Z,18.80
2023-05-22T23:15:06.689Z,18.80
2023-05-22T23:17:33.568Z,18.80
2023-05-22T23:20:01.002Z,18.80
2023-05-22T23:22:28.213Z,18.90
2023-05-22T23:24:55.115Z,18.80
2023-05-22T23:27:22.049Z,18.70
2023-05-22T23:29:48.967Z,18.60
2023-05-22T23:32:15.974Z,18.50
2023-05-22T23:34:43.250Z,18.50
2023-05-22T23:37:10.609Z,18.40
2023-05-22T23:39:37.491Z,18.40
2023-05-22T23:42:04.549Z,18.40
2023-05-22T23:44:31.812Z,18.40
2023-05-22T23:46:59.148Z,18.40
2023-05-22T23:49:26.506Z,18.40
2023-05-22T23:51:53.516Z,18.30
2023-05-22T23:54:20.422Z,18.40
2023-05-22T23:56:47.383Z,18.40
2023-05-22T23:59:14.419Z,18.40
